Time;durP1;ratioP1;P1;durP2;ratioP2;P2;SDS_P1;SDS_P2;PMS_P1;PMS_P2;Temp;Humidity;BMP_temperature;BMP_pressure;BME280_temperature;BME280_humidity;BME280_pressure;Samples;Min_cycle;Max_cycle;Signal;HPM_P1;HPM_P2
2021/10/22 00:01:05;;;;;;;1.07;1.07;;;;;;;5.40;100.00;100036.53;5072907;28;20231;-76
2021/10/22 00:03:30;;;;;;;1.40;1.33;;;;;;;5.38;100.00;100042.25;5072830;28;20602;-76
2021/10/22 00:05:58;;;;;;;1.40;0.83;;;;;;;5.35;100.00;100048.22;5072364;28;20235;-76
2021/10/22 00:08:25;;;;;;;0.10;0.10;;;;;;;5.37;100.00;100046.03;5072296;28;20170;-76
2021/10/22 00:10:51;;;;;;;0.47;0.47;;;;;;;5.36;100.00;100019.25;5090666;28;20169;-76
2021/10/22 00:13:17;;;;;;;1.30;1.13;;;;;;;5.37;100.00;100081.25;5090858;28;20162;-76
2021/10/22 00:15:42;;;;;;;2.97;1.37;;;;;;;5.35;100.00;100053.66;5090737;28;20166;-76
2021/10/22 00:18:07;;;;;;;0.13;0.13;;;;;;;5.36;100.00;100030.06;5072673;28;20185;-76
2021/10/22 00:20:33;;;;;;;0.20;0.20;;;;;;;5.33;100.00;100060.41;5090462;28;20170;-76
2021/10/22 00:22:58;;;;;;;0.50;0.10;;;;;;;5.35;100.00;100064.47;5072700;28;20223;-76
2021/10/22 00:25:24;;;;;;;3.40;0.37;;;;;;;5.35;100.00;100056.34;5072709;28;20169;-76
2021/10/22 00:27:50;;;;;;;0.00;0.00;;;;;;;5.40;100.00;100074.44;5090840;28;20593;-76
2021/10/22 00:30:16;;;;;;;0.97;0.30;;;;;;;5.43;100.00;100070.34;5090701;28;20257;-77
2021/10/22 00:32:41;;;;;;;4.03;0.60;;;;;;;5.43;100.00;100083.91;5090996;28;20264;-76
2021/10/22 00:35:07;;;;;;;1.53;0.47;;;;;;;5.43;100.00;100075.78;5072408;28;20602;-76
2021/10/22 00:37:32;;;;;;;5.20;1.00;;;;;;;5.46;100.00;100086.03;5072435;28;20240;-76
2021/10/22 00:39:58;;;;;;;0.10;0.07;;;;;;;5.42;100.00;100083.09;5090963;28;20622;-76
2021/10/22 00:42:24;;;;;;;1.03;1.03;;;;;;;5.43;100.00;100086.63;5090668;28;20208;-76
2021/10/22 00:44:51;;;;;;;0.13;0.13;;;;;;;5.44;100.00;100042.97;5072416;28;20166;-77
2021/10/22 00:47:17;;;;;;;0.00;0.00;;;;;;;5.43;100.00;100057.63;5072402;28;20503;-77
2021/10/22 00:49:43;;;;;;;6.70;0.97;;;;;;;5.45;100.00;100065.47;5090461;28;20199;-76
2021/10/22 00:52:09;;;;;;;0.97;0.93;;;;;;;5.46;100.00;100073.28;5072440;28;20197;-77
2021/10/22 00:54:35;;;;;;;0.90;0.83;;;;;;;5.46;100.00;100045.41;5090348;28;20189;-77
2021/10/22 00:57:01;;;;;;;1.87;0.43;;;;;;;5.47;100.00;100066.78;5090782;28;20223;-77
2021/10/22 00:59:26;;;;;;;5.50;0.63;;;;;;;5.51;100.00;100064.34;5090452;28;20597;-77
2021/10/22 01:01:52;;;;;;;0.37;0.37;;;;;;;5.50;100.00;100065.44;5072324;28;20170;-77
2021/10/22 01:04:17;;;;;;;0.63;0.23;;;;;;;5.46;100.00;100059.75;5090183;28;20174;-76
2021/10/22 01:06:43;;;;;;;0.27;0.27;;;;;;;5.44;100.00;100056.53;5090415;28;20185;-76
2021/10/22 01:09:10;;;;;;;2.63;1.07;;;;;;;5.45;100.00;100062.75;5072566;28;20626;-77
2021/10/22 01:11:36;;;;;;;0.53;0.37;;;;;;;5.46;100.00;100057.03;5093453;28;20177;-76
2021/10/22 01:14:02;;;;;;;0.40;0.40;;;;;;;5.48;100.00;100040.50;5074164;28;20178;-77
2021/10/22 01:16:28;;;;;;;3.40;0.83;;;;;;;5.46;100.00;100037.28;5090472;28;20181;-77
2021/10/22 01:18:53;;;;;;;3.20;1.73;;;;;;;5.47;100.00;100022.63;5072396;28;20660;-77
2021/10/22 01:21:19;;;;;;;4.33;0.30;;;;;;;5.49;100.00;100032.06;5094363;28;20644;-77
2021/10/22 01:23:44;;;;;;;0.00;0.00;;;;;;;5.48;100.00;100041.31;5093929;28;20178;-77
2021/10/22 01:26:09;;;;;;;0.93;0.37;;;;;;;5.49;100.00;100033.97;5094169;28;20170;-77
2021/10/22 01:28:35;;;;;;;0.53;0.53;;;;;;;5.51;100.00;100027.19;5094017;28;20255;-78
2021/10/22 01:31:01;;;;;;;0.60;0.57;;;;;;;5.53;100.00;100035.03;5093591;28;20177;-77
2021/10/22 01:33:27;;;;;;;6.70;0.77;;;;;;;5.53;100.00;100046.69;5093976;28;20166;-76
2021/10/22 01:35:52;;;;;;;0.50;0.50;;;;;;;5.51;100.00;100050.78;5093815;28;20172;-76
2021/10/22 01:38:21;;;;;;;0.53;0.50;;;;;;;5.47;100.00;100047.81;5093586;28;20206;-77
2021/10/22 01:40:47;;;;;;;0.33;0.23;;;;;;;5.49;100.00;100061.88;5093888;28;20198;-77
2021/10/22 01:43:12;;;;;;;1.23;0.80;;;;;;;5.51;100.00;100056.19;5075676;28;20174;-76
2021/10/22 01:45:38;;;;;;;0.73;0.73;;;;;;;5.54;100.00;100066.47;5093551;28;20182;-76
2021/10/22 01:48:04;;;;;;;1.03;1.03;;;;;;;5.54;100.00;100052.91;5093776;28;20253;-76
2021/10/22 01:50:31;;;;;;;4.33;1.17;;;;;;;5.53;100.00;100065.66;5075541;28;20700;-76
2021/10/22 01:52:56;;;;;;;3.20;0.13;;;;;;;5.51;100.00;100064.34;5093703;28;20177;-77
2021/10/22 01:55:22;;;;;;;2.77;1.13;;;;;;;5.52;100.00;100022.59;5093493;28;20170;-76
2021/10/22 01:57:47;;;;;;;0.33;0.30;;;;;;;5.50;100.00;100052.69;5075603;28;20593;-77
2021/10/22 02:00:12;;;;;;;0.83;0.73;;;;;;;5.51;100.00;100065.13;5093586;28;20173;-76
2021/10/22 02:02:38;;;;;;;0.07;0.07;;;;;;;5.53;100.00;100062.13;5093252;28;20174;-76
2021/10/22 02:05:04;;;;;;;1.30;1.20;;;;;;;5.53;100.00;100046.69;5093598;28;20601;-76
2021/10/22 02:07:30;;;;;;;0.83;0.83;;;;;;;5.56;100.00;100056.13;5093394;28;20247;-76
2021/10/22 02:09:56;;;;;;;13.50;2.03;;;;;;;5.55;100.00;100046.41;5075377;28;20539;-76
2021/10/22 02:12:21;;;;;;;8.70;3.90;;;;;;;5.52;100.00;100061.34;5093469;28;20170;-77
2021/10/22 02:14:47;;;;;;;4.63;0.63;;;;;;;5.54;100.00;100055.63;5093250;28;20170;-76
2021/10/22 02:17:12;;;;;;;0.10;0.10;;;;;;;5.54;100.00;100053.72;5093392;28;20586;-76
2021/10/22 02:19:37;;;;;;;1.90;1.80;;;;;;;5.50;100.00;100051.88;5074780;28;20216;-75
2021/10/22 02:22:03;;;;;;;2.17;0.70;;;;;;;5.49;100.00;100045.63;5075059;28;20169;-76
2021/10/22 02:24:28;;;;;;;2.63;0.87;;;;;;;5.48;100.00;100057.56;5074881;28;20666;-77
2021/10/22 02:26:54;;;;;;;2.07;1.97;;;;;;;5.49;100.00;100050.25;5092744;28;20181;-77
2021/10/22 02:29:20;;;;;;;2.60;2.00;;;;;;;5.52;100.00;100050.50;5092964;28;20185;-76
2021/10/22 02:31:46;;;;;;;0.97;0.97;;;;;;;5.55;100.00;100043.69;5092972;28;20170;-76
2021/10/22 02:34:11;;;;;;;11.47;1.93;;;;;;;5.58;100.00;100041.19;5092879;28;20295;-76
2021/10/22 02:36:37;;;;;;;7.77;2.70;;;;;;;5.59;100.00;100042.81;5092901;28;20215;-76
2021/10/22 02:39:04;;;;;;;0.57;0.57;;;;;;;5.55;100.00;100032.84;5092655;28;20190;-76
2021/10/22 02:41:29;;;;;;;3.93;2.07;;;;;;;5.51;100.00;100023.69;5092723;28;20170;-76
2021/10/22 02:43:55;;;;;;;1.70;1.60;;;;;;;5.49;100.00;100026.66;5074313;28;20173;-76
2021/10/22 02:46:20;;;;;;;3.57;1.57;;;;;;;5.49;100.00;100025.84;5092780;28;20170;-77
2021/10/22 02:48:45;;;;;;;3.50;1.90;;;;;;;5.50;100.00;100019.38;5092758;28;20174;-76
2021/10/22 02:51:11;;;;;;;7.10;1.67;;;;;;;5.51;100.00;100023.69;5074182;28;20239;-77
2021/10/22 02:53:37;;;;;;;2.33;1.47;;;;;;;5.53;100.00;100019.59;5092030;28;20282;-77
2021/10/22 02:56:03;;;;;;;2.10;2.00;;;;;;;5.51;100.00;100020.97;5092472;28;20219;-76
2021/10/22 02:58:29;;;;;;;3.47;2.23;;;;;;;5.52;100.00;100030.72;5092422;28;20656;-77
2021/10/22 03:00:54;;;;;;;1.80;1.63;;;;;;;5.53;100.00;100033.13;5092535;28;20177;-77
2021/10/22 03:03:19;;;;;;;0.73;0.73;;;;;;;5.51;100.00;100034.53;5074279;28;20716;-76
2021/10/22 03:05:45;;;;;;;3.10;1.20;;;;;;;5.52;100.00;100014.47;5092206;28;20235;-75
2021/10/22 03:08:10;;;;;;;1.53;1.23;;;;;;;5.60;100.00;100016.53;5092433;28;20287;-76
2021/10/22 03:10:35;;;;;;;1.50;1.40;;;;;;;5.58;100.00;100021.44;5092561;28;20269;-76
2021/10/22 03:13:01;;;;;;;1.50;1.40;;;;;;;5.56;100.00;100020.91;5091685;28;20185;-77
2021/10/22 03:15:27;;;;;;;1.30;0.93;;;;;;;5.60;100.00;100022.75;5088003;28;20588;-76
2021/10/22 03:17:54;;;;;;;1.30;0.97;;;;;;;5.61;100.00;100018.94;5091541;28;20661;-76
2021/10/22 03:20:20;;;;;;;0.30;0.30;;;;;;;5.59;100.00;100018.44;5092035;28;20637;-76
2021/10/22 03:22:45;;;;;;;1.37;1.03;;;;;;;5.55;100.00;100020.09;5092002;28;20177;-77
2021/10/22 03:25:11;;;;;;;0.40;0.40;;;;;;;5.52;100.00;100019.88;5091817;28;20176;-76
2021/10/22 03:27:36;;;;;;;0.10;0.10;;;;;;;5.51;100.00;100012.84;5091863;28;20178;-76
2021/10/22 03:30:02;;;;;;;5.30;2.20;;;;;;;5.59;100.00;100015.72;5073760;28;20277;-75
2021/10/22 03:32:32;;;;;;;16.67;2.23;;;;;;;5.65;100.00;100013.78;5091838;28;20203;-76
2021/10/22 03:34:57;;;;;;;1.00;0.90;;;;;;;5.64;100.00;100007.53;5091693;28;20180;-76
2021/10/22 03:37:23;;;;;;;0.53;0.37;;;;;;;5.66;100.00;99999.13;5091570;28;20178;-76
2021/10/22 03:39:48;;;;;;;21.03;1.80;;;;;;;5.69;100.00;99995.81;5091587;28;20203;-77
2021/10/22 03:42:13;;;;;;;1.13;1.13;;;;;;;5.72;100.00;100008.00;5072789;28;20652;-77
2021/10/22 03:44:39;;;;;;;1.93;1.83;;;;;;;5.75;100.00;99997.38;5091308;28;20621;-76
2021/10/22 03:47:05;;;;;;;0.93;0.93;;;;;;;5.76;100.00;99993.56;5073107;28;20637;-76
2021/10/22 03:49:31;;;;;;;1.57;1.20;;;;;;;5.74;100.00;100003.88;5091706;28;20261;-76
2021/10/22 03:51:56;;;;;;;0.60;0.60;;;;;;;5.69;100.00;99993.13;5073472;28;20264;-76
2021/10/22 03:54:21;;;;;;;0.40;0.40;;;;;;;5.62;100.00;99993.44;5073256;28;20189;-76
2021/10/22 03:56:47;;;;;;;2.83;0.67;;;;;;;5.61;100.00;100001.88;5073373;28;20181;-76
2021/10/22 03:59:15;;;;;;;1.20;0.93;;;;;;;5.57;100.00;99990.81;5091505;28;20200;-76
2021/10/22 04:01:41;;;;;;;4.27;1.30;;;;;;;5.58;100.00;99991.63;5073362;28;20617;-76
2021/10/22 04:04:06;;;;;;;0.87;0.70;;;;;;;5.54;100.00;99994.09;5091237;28;20176;-77
2021/10/22 04:06:31;;;;;;;1.53;0.73;;;;;;;5.57;100.00;99987.31;5091026;28;20221;-76
2021/10/22 04:08:57;;;;;;;8.80;1.73;;;;;;;5.56;100.00;99999.25;5091181;28;20178;-76
2021/10/22 04:11:22;;;;;;;3.23;0.50;;;;;;;5.58;100.00;99994.34;5073343;28;20773;-76
2021/10/22 04:13:47;;;;;;;4.93;1.83;;;;;;;5.59;100.00;99993.22;5091149;28;20184;-76
2021/10/22 04:16:13;;;;;;;4.27;0.53;;;;;;;5.61;100.00;99991.84;5073056;28;20185;-76
2021/10/22 04:18:38;;;;;;;0.30;0.30;;;;;;;5.70;100.00;99994.72;5071236;28;20662;-76
2021/10/22 04:21:04;;;;;;;0.20;0.20;;;;;;;5.72;100.00;99986.31;5072730;28;20178;-76
2021/10/22 04:23:29;;;;;;;10.83;2.57;;;;;;;5.75;100.00;99999.28;5091239;28;20249;-76
2021/10/22 04:25:54;;;;;;;3.10;1.13;;;;;;;5.72;100.00;99995.25;5091018;28;20174;-76
2021/10/22 04:28:20;;;;;;;1.80;1.00;;;;;;;5.75;100.00;99985.72;5091227;28;20383;-76
2021/10/22 04:30:46;;;;;;;0.70;0.70;;;;;;;5.75;100.00;99981.09;5091065;28;20178;-77
2021/10/22 04:33:12;;;;;;;0.30;0.30;;;;;;;5.78;100.00;99977.81;5072711;28;20197;-76
2021/10/22 04:35:37;;;;;;;3.43;1.03;;;;;;;5.80;100.00;99975.63;5090917;28;20178;-77
2021/10/22 04:40:48;;;;;;;3.87;2.43;;;;;;;5.82;100.00;99978.84;5091004;28;20534;-76
2021/10/22 04:43:15;;;;;;;6.93;2.50;;;;;;;5.83;100.00;99982.38;5090897;28;20265;-76
2021/10/22 04:45:42;;;;;;;12.83;1.43;;;;;;;5.86;100.00;99982.59;5072832;28;20185;-76
2021/10/22 04:48:11;;;;;;;6.27;1.50;;;;;;;5.80;100.00;99978.34;5091133;28;20182;-76
2021/10/22 04:50:41;;;;;;;0.70;0.70;;;;;;;5.74;100.00;99978.69;5072821;28;20178;-76
2021/10/22 04:53:08;;;;;;;0.37;0.37;;;;;;;5.74;100.00;99986.81;5091087;28;20560;-76
2021/10/22 04:55:34;;;;;;;2.53;2.33;;;;;;;5.78;100.00;99994.06;5093688;28;20167;-76
2021/10/22 04:57:59;;;;;;;1.40;1.33;;;;;;;5.89;100.00;99997.47;5094413;28;20206;-76
2021/10/22 05:00:25;;;;;;;2.27;0.90;;;;;;;5.92;100.00;100002.31;5094769;28;20671;-76
2021/10/22 05:02:50;;;;;;;4.57;0.90;;;;;;;5.93;100.00;99998.50;5076430;28;20644;-76
2021/10/22 05:05:16;;;;;;;1.07;1.03;;;;;;;5.95;100.00;100007.19;5076441;28;20177;-76
2021/10/22 05:07:42;;;;;;;13.60;2.87;;;;;;;5.93;100.00;100014.78;5076515;28;20197;-76
2021/10/22 05:10:08;;;;;;;1.33;0.53;;;;;;;5.88;100.00;100017.53;5076233;28;20181;-76
2021/10/22 05:12:35;;;;;;;4.70;0.60;;;;;;;5.90;100.00;100004.53;5076471;28;20204;-76
2021/10/22 05:15:01;;;;;;;0.53;0.53;;;;;;;5.94;99.97;100011.00;5076166;28;20264;-76
2021/10/22 05:17:27;;;;;;;13.93;2.17;;;;;;;5.94;99.35;100003.69;5094039;28;20189;-76
2021/10/22 05:19:53;;;;;;;0.13;0.13;;;;;;;5.99;98.82;100004.69;5075868;28;20648;-76
2021/10/22 05:22:19;;;;;;;0.70;0.47;;;;;;;6.00;98.73;99990.03;5094114;28;20201;-76
2021/10/22 05:24:45;;;;;;;0.57;0.57;;;;;;;5.99;98.23;99988.44;5094042;28;20170;-76
2021/10/22 05:27:11;;;;;;;1.20;1.07;;;;;;;6.02;97.67;99998.69;5094080;28;20181;-76
2021/10/22 05:29:36;;;;;;;2.07;0.37;;;;;;;6.07;96.91;99993.19;5076060;28;20517;-76
2021/10/22 05:32:02;;;;;;;0.30;0.27;;;;;;;6.10;96.19;100001.56;5094154;28;20287;-77
2021/10/22 05:34:27;;;;;;;0.20;0.20;;;;;;;6.12;96.23;99993.13;5093869;28;20640;-76
2021/10/22 05:36:53;;;;;;;10.20;1.33;;;;;;;6.12;96.05;99990.41;5075954;28;20240;-76
2021/10/22 05:39:20;;;;;;;0.00;0.00;;;;;;;6.10;96.17;99974.44;5093943;28;20190;-76
2021/10/22 05:41:50;;;;;;;4.47;0.67;;;;;;;6.09;96.24;99974.75;5093864;28;20177;-76
2021/10/22 05:44:19;;;;;;;0.00;0.00;;;;;;;6.06;96.37;99983.44;5075548;28;20180;-76
2021/10/22 05:46:50;;;;;;;0.40;0.40;;;;;;;6.06;96.55;99959.84;5075573;28;20564;-76
2021/10/22 05:49:15;;;;;;;0.00;0.00;;;;;;;6.11;95.86;99964.41;5093559;28;20166;-76
2021/10/22 05:51:41;;;;;;;4.27;0.30;;;;;;;6.11;95.95;99967.13;5093638;28;20231;-76
2021/10/22 05:54:06;;;;;;;3.27;0.30;;;;;;;6.15;95.08;99970.84;5093615;28;20166;-76
2021/10/22 05:56:32;;;;;;;0.60;0.30;;;;;;;6.14;95.06;99961.09;5093708;28;20684;-75
2021/10/22 05:58:57;;;;;;;0.33;0.33;;;;;;;6.17;94.41;99955.06;5093519;28;20276;-76
2021/10/22 06:01:23;;;;;;;0.10;0.10;;;;;;;6.15;94.85;99943.72;5075306;28;20173;-77
2021/10/22 06:03:49;;;;;;;4.53;0.60;;;;;;;6.17;94.20;99936.09;5093471;28;20200;-76
2021/10/22 06:06:15;;;;;;;1.57;0.80;;;;;;;6.13;94.43;99937.78;5074655;28;20671;-76
2021/10/22 06:08:41;;;;;;;0.73;0.17;;;;;;;6.12;94.12;99930.75;5075093;28;20231;-75
2021/10/22 06:11:11;;;;;;;0.87;0.73;;;;;;;6.18;93.48;99927.66;5092910;28;20457;-74
2021/10/22 06:13:41;;;;;;;2.50;1.17;;;;;;;6.24;92.60;99934.63;5089213;28;20186;-75
2021/10/22 06:16:09;;;;;;;3.10;1.23;;;;;;;6.26;92.28;99929.72;5092953;28;20257;-74
2021/10/22 06:18:37;;;;;;;0.30;0.17;;;;;;;6.26;92.38;99920.78;5093050;28;20724;-75
2021/10/22 06:21:09;;;;;;;0.70;0.40;;;;;;;6.23;92.21;99919.47;5080353;28;20516;-74
2021/10/22 06:23:54;;;;;;;3.30;1.57;;;;;;;6.28;92.33;99923.19;5074958;28;20170;-75
2021/10/22 06:26:23;;;;;;;0.93;0.10;;;;;;;6.36;91.24;99923.31;5093192;28;20236;-75
2021/10/22 06:28:50;;;;;;;1.13;0.60;;;;;;;6.46;89.86;99925.06;5093082;28;20194;-74
2021/10/22 06:31:15;;;;;;;0.50;0.50;;;;;;;6.51;89.04;99908.69;5092946;28;20245;-75
2021/10/22 06:33:41;;;;;;;1.80;1.00;;;;;;;6.52;88.98;99891.31;5092789;28;20277;-75
2021/10/22 06:36:07;;;;;;;1.10;1.03;;;;;;;6.54;89.04;99898.06;5092809;28;20181;-75
2021/10/22 06:38:33;;;;;;;9.90;1.33;;;;;;;6.59;89.09;99899.06;5092541;28;20691;-75
2021/10/22 06:40:59;;;;;;;5.40;0.20;;;;;;;6.62;88.72;99912.03;5092680;28;20170;-75
2021/10/22 06:43:24;;;;;;;0.30;0.17;;;;;;;6.65;88.89;99897.84;5092551;28;20629;-75
2021/10/22 06:45:50;;;;;;;0.30;0.30;;;;;;;6.65;88.53;99895.13;5092519;28;20688;-75
2021/10/22 06:48:16;;;;;;;2.27;1.13;;;;;;;6.68;88.12;99900.81;5092611;28;20660;-76
2021/10/22 06:50:43;;;;;;;0.10;0.10;;;;;;;6.71;88.09;99908.34;5074424;28;20212;-75
2021/10/22 06:53:08;;;;;;;0.00;0.00;;;;;;;6.75;88.08;99922.13;5092590;28;20177;-76
2021/10/22 06:55:34;;;;;;;0.67;0.60;;;;;;;6.76;87.93;99935.38;5092319;28;20170;-77
2021/10/22 06:58:00;;;;;;;0.77;0.40;;;;;;;6.79;87.14;99909.53;5092673;28;20201;-78
2021/10/22 07:00:27;;;;;;;0.77;0.40;;;;;;;6.82;87.97;99911.69;5092338;28;20174;-78
2021/10/22 07:02:54;;;;;;;0.83;0.50;;;;;;;6.84;87.66;99909.47;5091959;28;20268;-78
2021/10/22 07:08:05;;;;;;;0.70;0.60;;;;;;;6.97;87.25;99926.88;5071902;28;20181;-78
2021/10/22 07:10:32;;;;;;;1.90;0.70;;;;;;;7.02;87.08;99932.22;5071554;28;20175;-76
2021/10/22 07:12:58;;;;;;;1.40;0.77;;;;;;;7.06;87.54;99928.59;5071623;28;20256;-76
2021/10/22 07:15:23;;;;;;;0.10;0.10;;;;;;;7.11;87.54;99957.59;5067737;28;20178;-80
2021/10/22 07:17:48;;;;;;;0.63;0.47;;;;;;;7.21;87.63;99934.84;5089695;28;20645;-77
2021/10/22 07:20:15;;;;;;;2.43;2.23;;;;;;;7.27;87.34;99939.09;5073474;28;20278;-77
2021/10/22 07:25:14;;;;;;;0.63;0.63;;;;;;;7.33;86.74;99935.94;5091912;28;20177;-76
2021/10/22 07:27:40;;;;;;;3.40;0.70;;;;;;;7.35;86.31;99932.94;5091613;28;20169;-75
2021/10/22 07:30:06;;;;;;;0.40;0.40;;;;;;;7.37;86.42;99938.84;5073589;28;20309;-75
2021/10/22 07:32:32;;;;;;;0.00;0.00;;;;;;;7.40;86.83;99935.56;5090972;28;20170;-75
2021/10/22 07:34:57;;;;;;;0.10;0.07;;;;;;;7.44;85.94;99931.13;5089856;28;20185;-75
2021/10/22 07:37:22;;;;;;;6.23;1.27;;;;;;;7.51;85.42;99939.66;5090946;28;20635;-75
2021/10/22 07:39:48;;;;;;;0.63;0.23;;;;;;;7.51;86.45;99933.41;5072548;28;20209;-75
2021/10/22 07:42:13;;;;;;;1.50;0.67;;;;;;;7.55;85.60;99937.97;5090839;28;20193;-75
2021/10/22 07:44:39;;;;;;;0.00;0.00;;;;;;;7.56;86.75;99942.28;5090557;28;20176;-75
2021/10/22 07:47:04;;;;;;;0.30;0.30;;;;;;;7.57;86.63;99941.19;5072595;28;20174;-75
2021/10/22 07:49:30;;;;;;;0.60;0.60;;;;;;;7.58;86.35;99952.88;5072645;28;20169;-75
2021/10/22 07:51:55;;;;;;;1.13;1.10;;;;;;;7.56;85.72;99915.09;5090675;28;20254;-75
2021/10/22 07:54:20;;;;;;;3.13;1.33;;;;;;;7.56;86.35;99947.72;5090476;28;20262;-75
2021/10/22 07:56:46;;;;;;;0.70;0.40;;;;;;;7.59;86.39;99930.00;5073552;28;20201;-75
2021/10/22 07:59:13;;;;;;;3.17;1.10;;;;;;;7.61;85.81;99933.22;5090505;28;20683;-75
2021/10/22 08:01:39;;;;;;;4.00;0.87;;;;;;;7.61;86.34;99947.63;5072466;28;20186;-75
2021/10/22 08:04:05;;;;;;;1.97;1.03;;;;;;;7.62;86.39;99932.91;5090396;28;20365;-74
2021/10/22 08:06:31;;;;;;;0.50;0.43;;;;;;;7.64;86.87;99930.69;5072285;28;20558;-75
2021/10/22 08:08:57;;;;;;;0.20;0.20;;;;;;;7.67;87.66;99930.09;5072236;28;20174;-75
2021/10/22 08:11:23;;;;;;;0.40;0.40;;;;;;;7.70;87.40;99947.72;5090519;28;20724;-75
2021/10/22 08:13:49;;;;;;;0.43;0.40;;;;;;;7.69;87.03;99919.72;5072008;28;20201;-75
2021/10/22 08:16:15;;;;;;;0.50;0.50;;;;;;;7.69;87.40;99930.59;5090381;28;20288;-75
2021/10/22 08:18:40;;;;;;;0.13;0.13;;;;;;;7.63;87.18;99918.22;5090361;28;20193;-75
2021/10/22 08:21:35;;;;;;;7.23;0.67;;;;;;;7.62;88.19;99923.94;5090017;28;20177;-75
2021/10/22 08:24:00;;;;;;;0.10;0.10;;;;;;;7.64;87.81;99927.97;5071900;28;20262;-75
2021/10/22 08:26:26;;;;;;;6.70;2.10;;;;;;;7.71;87.61;99928.38;5072153;28;20269;-75
2021/10/22 08:28:51;;;;;;;1.00;1.00;;;;;;;7.78;86.74;99921.72;5073947;28;20375;-75
2021/10/22 08:31:17;;;;;;;0.40;0.40;;;;;;;7.80;87.05;99928.44;5094368;28;20177;-75
2021/10/22 08:33:42;;;;;;;0.93;0.83;;;;;;;7.90;86.82;99919.25;5094144;28;20684;-75
2021/10/22 08:36:08;;;;;;;3.23;0.87;;;;;;;7.97;86.41;99912.31;5094514;28;20347;-74
2021/10/22 08:38:35;;;;;;;1.27;0.80;;;;;;;8.00;86.36;99921.75;5094262;28;20198;-74
2021/10/22 08:41:01;;;;;;;0.27;0.27;;;;;;;7.94;85.90;99933.84;5076159;28;20174;-75
2021/10/22 08:43:28;;;;;;;1.40;0.97;;;;;;;7.96;86.09;99920.78;5094187;28;20629;-75
2021/10/22 08:45:55;;;;;;;13.50;2.83;;;;;;;7.99;85.79;99912.81;5075674;28;20618;-74
2021/10/22 08:48:22;;;;;;;15.27;1.60;;;;;;;8.01;86.24;99915.22;5075989;28;20169;-75
2021/10/22 08:50:47;;;;;;;1.60;0.20;;;;;;;8.08;86.36;99910.13;5094115;28;20232;-75
2021/10/22 08:53:12;;;;;;;0.10;0.10;;;;;;;8.10;86.16;99913.38;5094073;28;20239;-74
2021/10/22 08:55:38;;;;;;;5.33;1.70;;;;;;;8.06;85.84;99898.75;5093848;28;20253;-75
2021/10/22 08:58:04;;;;;;;0.20;0.20;;;;;;;8.11;86.94;99887.78;5093826;28;20289;-75
2021/10/22 09:00:29;;;;;;;0.80;0.67;;;;;;;8.14;87.26;99913.56;5075645;28;20173;-75
2021/10/22 09:03:11;;;;;;;0.60;0.30;;;;;;;8.20;86.44;99904.94;5093844;28;20177;-75
2021/10/22 09:05:38;;;;;;;3.40;1.53;;;;;;;8.26;85.34;99906.47;5093548;28;20174;-75
2021/10/22 09:08:07;;;;;;;0.33;0.33;;;;;;;8.24;85.76;99899.69;5075562;28;20189;-74
2021/10/22 09:10:35;;;;;;;0.47;0.47;;;;;;;8.34;86.25;99910.38;5093572;28;20173;-74
2021/10/22 09:13:06;;;;;;;0.57;0.57;;;;;;;8.42;86.79;99922.44;5075306;28;20564;-75
2021/10/22 09:15:39;;;;;;;1.10;1.10;;;;;;;8.33;85.13;99914.97;5075195;28;20406;-75
2021/10/22 09:18:15;;;;;;;5.97;1.17;;;;;;;8.41;84.88;99908.03;5093608;28;20239;-75
2021/10/22 09:21:00;;;;;;;4.57;0.83;;;;;;;8.43;84.50;99897.63;5093837;28;20491;-74
2021/10/22 09:23:27;;;;;;;4.50;1.67;;;;;;;8.51;84.29;99917.84;5075246;28;20205;-75
2021/10/22 09:25:53;;;;;;;0.33;0.33;;;;;;;8.56;85.28;99915.81;5093236;28;20201;-75
2021/10/22 09:28:27;;;;;;;1.03;0.63;;;;;;;8.52;84.74;99917.53;5075098;28;20204;-74
2021/10/22 09:30:53;;;;;;;0.40;0.40;;;;;;;8.55;84.52;99907.97;5093632;28;20181;-75
2021/10/22 09:33:25;;;;;;;0.90;0.60;;;;;;;8.65;84.20;99896.78;5075205;28;20521;-75
2021/10/22 09:35:53;;;;;;;0.13;0.13;;;;;;;8.83;83.46;99903.97;5074861;28;20178;-74
2021/10/22 09:38:18;;;;;;;0.83;0.83;;;;;;;8.88;83.01;99906.53;5093287;28;20653;-74
2021/10/22 09:40:46;;;;;;;1.20;1.17;;;;;;;8.85;82.86;99922.72;5092276;28;20182;-74
2021/10/22 09:43:17;;;;;;;0.40;0.40;;;;;;;8.90;82.68;99904.31;5093119;28;20813;-74
2021/10/22 09:45:47;;;;;;;1.10;0.90;;;;;;;8.95;82.61;99916.97;5074924;28;20816;-75
2021/10/22 09:48:21;;;;;;;3.07;1.47;;;;;;;8.93;82.57;99917.28;5093452;28;20221;-75
2021/10/22 09:50:46;;;;;;;0.70;0.70;;;;;;;8.97;82.82;99914.75;5074732;28;20181;-74
2021/10/22 09:53:27;;;;;;;0.87;0.43;;;;;;;9.05;82.92;99916.72;5092885;28;20177;-74
2021/10/22 09:56:07;;;;;;;1.70;0.97;;;;;;;9.12;82.28;99908.91;5092524;28;20249;-74
2021/10/22 09:58:36;;;;;;;0.73;0.63;;;;;;;9.10;81.88;99923.94;5074437;28;20216;-74
2021/10/22 10:01:26;;;;;;;1.90;0.80;;;;;;;9.07;81.54;99932.75;5074669;28;20387;-74
2021/10/22 10:03:53;;;;;;;2.07;0.70;;;;;;;9.00;81.19;99937.84;5092452;28;20618;-74
2021/10/22 10:06:18;;;;;;;0.23;0.23;;;;;;;9.00;82.26;99946.03;5074417;28;20190;-74
2021/10/22 10:08:44;;;;;;;0.20;0.20;;;;;;;9.04;82.13;99933.38;5074624;28;20182;-74
2021/10/22 10:11:10;;;;;;;1.23;1.10;;;;;;;9.09;79.75;99927.78;5092391;28;20170;-74
2021/10/22 10:13:35;;;;;;;0.40;0.40;;;;;;;9.12;80.71;99938.06;5092190;28;20637;-74
2021/10/22 10:16:04;;;;;;;0.90;0.90;;;;;;;9.11;80.90;99947.34;5074224;28;20546;-74
2021/10/22 10:18:37;;;;;;;7.80;1.30;;;;;;;9.16;80.23;99941.78;5092376;28;20194;-74
2021/10/22 10:21:05;;;;;;;3.90;0.67;;;;;;;9.24;80.85;99935.53;5092152;28;20201;-74
2021/10/22 10:23:33;;;;;;;0.90;0.90;;;;;;;9.29;82.43;99934.59;5074099;28;20268;-75
2021/10/22 10:26:18;;;;;;;4.60;1.67;;;;;;;9.30;80.21;99939.75;5073896;28;20178;-74
2021/10/22 10:28:44;;;;;;;15.07;0.90;;;;;;;9.30;81.31;99944.38;5092258;28;20170;-74
2021/10/22 10:31:42;;;;;;;3.10;0.93;;;;;;;9.27;82.38;99942.31;5092125;28;20181;-74
2021/10/22 10:34:41;;;;;;;0.87;0.60;;;;;;;9.25;82.00;99932.50;5091823;28;20531;-75
2021/10/22 10:37:38;;;;;;;2.00;1.23;;;;;;;9.26;80.78;99944.22;5037394;28;20703;-74
2021/10/22 10:40:28;;;;;;;4.80;1.30;;;;;;;9.27;81.83;99954.00;5071840;28;20193;-74
2021/10/22 10:42:54;;;;;;;2.10;1.00;;;;;;;9.27;81.25;99929.47;5073764;28;20186;-74
2021/10/22 10:45:26;;;;;;;6.40;1.93;;;;;;;9.28;80.58;99909.28;5073579;28;20656;-74
2021/10/22 10:47:55;;;;;;;3.20;1.17;;;;;;;9.32;80.05;99953.84;5091880;28;20206;-75
2021/10/22 10:50:33;;;;;;;1.50;1.03;;;;;;;9.41;79.46;99938.34;5091799;28;20185;-74
2021/10/22 10:53:00;;;;;;;1.27;0.70;;;;;;;9.54;80.26;99931.94;5091791;28;20186;-74
2021/10/22 10:55:30;;;;;;;1.13;1.03;;;;;;;9.72;79.23;99941.00;5091794;28;20224;-74
2021/10/22 10:58:07;;;;;;;9.73;0.70;;;;;;;9.99;78.23;99939.91;5091550;28;20237;-74
2021/10/22 11:00:37;;;;;;;0.73;0.53;;;;;;;9.84;78.19;99916.63;5091568;28;20177;-74
2021/10/22 11:03:05;;;;;;;1.03;1.03;;;;;;;9.75;79.49;99920.44;5091563;28;20544;-75
2021/10/22 11:05:47;;;;;;;2.73;0.77;;;;;;;9.67;78.24;99910.31;5091262;28;20644;-74
2021/10/22 11:08:16;;;;;;;3.00;1.27;;;;;;;9.69;78.83;99918.97;5091513;28;20684;-74
2021/10/22 11:13:42;;;;;;;12.50;1.57;;;;;;;9.66;78.03;99919.63;5075151;28;20186;-74
2021/10/22 11:16:23;;;;;;;0.80;0.80;;;;;;;9.71;78.18;99897.66;5089609;28;20622;-74
2021/10/22 11:19:03;;;;;;;0.53;0.53;;;;;;;9.74;78.25;99918.84;5091885;28;20342;-77
2021/10/22 11:21:30;;;;;;;0.20;0.20;;;;;;;9.67;77.80;99911.13;5091458;28;20181;-77
2021/10/22 11:23:58;;;;;;;1.03;0.70;;;;;;;9.59;77.94;99913.84;5085906;28;20541;-76
2021/10/22 11:26:24;;;;;;;0.20;0.17;;;;;;;9.53;79.22;99913.16;5091364;28;20209;-76
2021/10/22 11:28:51;;;;;;;0.37;0.37;;;;;;;9.45;80.31;99927.59;5059640;28;20270;-76
2021/10/22 11:31:36;;;;;;;0.20;0.20;;;;;;;9.42;79.96;99929.03;5089475;28;20190;-75
2021/10/22 11:34:04;;;;;;;3.10;1.60;;;;;;;9.40;80.78;99920.38;5090230;28;20246;-76
2021/10/22 11:36:30;;;;;;;1.37;0.53;;;;;;;9.41;81.24;99934.81;5090013;28;20184;-77
2021/10/22 11:38:55;;;;;;;1.20;1.10;;;;;;;9.37;82.96;99925.63;5090568;28;20205;-77
2021/10/22 11:41:21;;;;;;;2.17;1.37;;;;;;;9.28;84.04;99935.72;5082042;28;20326;-77
2021/10/22 11:44:04;;;;;;;2.57;1.20;;;;;;;9.15;87.15;99935.50;5090773;28;20538;-77
2021/10/22 11:46:45;;;;;;;1.03;0.97;;;;;;;8.99;89.58;99936.25;5088069;28;20176;-77